Sao Benedito do Sul, Brazil
Current Conditions -  °F | °C
As of 6:00 AM on Monday 20 Oct 2014 (Local Time) from SBMO Reporting Station
Few Clouds Few Clouds  
Wind Chill: 68°   Ceiling: Unl
Heat Index: 68°   Visibility: 6mi
Dew Point: 68°   Wind: 3mph
Humidity: 100%   Direction: 10°N
Pressure: 29.94"   Gusts: NA
Location:  8.81°S, 35.95°W
Report Text: SBMO 200900Z 01003KT 9999 FEW020 20/20 Q1014
Loading
Personal Weather Stations






























Interactive Weather Map
Tropical Storm Tracking
New forecast layout! Learn more

10-Day Weather Forecast

Advertisements
Track Severe Weather on mobile